Time;durP1;ratioP1;P1;durP2;ratioP2;P2;SDS_P1;SDS_P2;PMS_P1;PMS_P2;Temp;Humidity;BMP_temperature;BMP_pressure;BME280_temperature;BME280_humidity;BME280_pressure;Samples;Min_cycle;Max_cycle;Signal;HPM_P1;HPM_P2
2021/09/21 00:01:07;;;;;;;4.40;2.75;;;;;;;5.69;86.98;98939.78;5114886;28;20039;-61
2021/09/21 00:03:34;;;;;;;5.18;2.90;;;;;;;5.68;87.40;98944.25;5115293;28;20048;-60
2021/09/21 00:06:01;;;;;;;5.15;3.10;;;;;;;5.71;87.46;98945.66;5115112;28;20039;-61
2021/09/21 00:08:27;;;;;;;7.90;3.55;;;;;;;5.71;87.45;98935.13;5115423;28;20074;-60
2021/09/21 00:10:54;;;;;;;4.07;3.03;;;;;;;5.72;87.48;98935.94;5114618;28;20119;-61
2021/09/21 00:13:20;;;;;;;4.80;3.13;;;;;;;5.72;87.50;98933.28;5113925;28;20052;-62
2021/09/21 00:15:46;;;;;;;4.28;2.95;;;;;;;5.67;87.39;98928.69;5113284;28;20519;-62
2021/09/21 00:18:12;;;;;;;5.45;3.40;;;;;;;5.71;88.69;98929.88;5115021;27;20527;-60
2021/09/21 00:20:37;;;;;;;5.22;3.30;;;;;;;5.68;88.35;98923.22;5114678;28;20051;-61
2021/09/21 00:23:03;;;;;;;3.85;2.63;;;;;;;5.66;87.99;98930.50;5113160;28;20100;-61
2021/09/21 00:25:29;;;;;;;6.10;3.47;;;;;;;5.67;88.03;98934.72;5114733;28;20131;-60
2021/09/21 00:28:00;;;;;;;4.95;3.00;;;;;;;5.66;87.64;98927.06;5114741;28;20036;-61
2021/09/21 00:30:26;;;;;;;4.25;3.22;;;;;;;5.67;88.45;98924.22;5113263;28;20047;-60
2021/09/21 00:33:03;;;;;;;5.85;4.10;;;;;;;5.65;88.10;98905.25;5112955;28;20070;-59
2021/09/21 00:35:30;;;;;;;5.53;3.25;;;;;;;5.69;88.44;98916.91;5114217;28;20077;-61
2021/09/21 00:37:56;;;;;;;5.55;2.92;;;;;;;5.68;87.37;98919.78;5114430;28;20044;-62
2021/09/21 00:40:22;;;;;;;4.70;2.55;;;;;;;5.66;87.32;98921.81;5114449;28;20113;-59
2021/09/21 00:42:49;;;;;;;3.67;3.05;;;;;;;5.67;88.22;98905.81;5114359;28;20097;-60
2021/09/21 00:45:23;;;;;;;4.70;3.17;;;;;;;5.68;88.35;98917.94;5114092;28;20035;-60
2021/09/21 00:47:52;;;;;;;4.07;2.72;;;;;;;5.64;88.44;98900.19;5114202;28;20523;-59
2021/09/21 00:50:19;;;;;;;3.45;2.63;;;;;;;5.65;87.86;98918.38;5114013;28;20260;-59
2021/09/21 00:52:45;;;;;;;3.53;2.85;;;;;;;5.67;88.41;98900.53;5113795;28;20050;-60
2021/09/21 00:55:11;;;;;;;4.53;2.95;;;;;;;5.73;88.46;98904.13;5113781;28;20450;-61
2021/09/21 00:57:37;;;;;;;5.70;2.83;;;;;;;5.68;88.32;98919.78;5114101;28;20083;-61
2021/09/21 01:00:08;;;;;;;4.07;2.50;;;;;;;5.69;88.19;98910.88;5112603;28;20116;-61
2021/09/21 01:02:34;;;;;;;4.80;2.90;;;;;;;5.72;88.02;98899.91;5113949;28;20035;-60
2021/09/21 01:05:01;;;;;;;4.43;2.80;;;;;;;5.69;88.31;98913.50;5113703;27;20130;-61
2021/09/21 01:07:26;;;;;;;4.22;2.50;;;;;;;5.68;88.17;98899.53;5113919;28;20055;-60
2021/09/21 01:10:21;;;;;;;3.83;2.60;;;;;;;5.72;88.22;98899.09;5113825;28;20398;-60
2021/09/21 01:12:46;;;;;;;4.18;2.80;;;;;;;5.69;88.57;98893.25;5113795;28;20096;-62
2021/09/21 01:15:13;;;;;;;3.33;2.50;;;;;;;5.74;88.09;98891.81;5113411;28;20035;-61
2021/09/21 01:17:40;;;;;;;4.47;2.90;;;;;;;5.75;88.19;98909.19;5113690;28;20043;-59
2021/09/21 01:20:07;;;;;;;4.30;3.13;;;;;;;5.74;88.18;98894.44;5112132;28;20031;-61
2021/09/21 01:22:33;;;;;;;5.20;2.60;;;;;;;5.75;87.63;98888.94;5113919;28;20047;-59
2021/09/21 01:24:59;;;;;;;4.40;2.55;;;;;;;5.77;88.00;98888.75;5112992;28;20468;-61
2021/09/21 01:27:25;;;;;;;3.53;2.65;;;;;;;5.75;88.58;98893.41;5113464;28;20036;-59
2021/09/21 01:29:51;;;;;;;3.95;2.85;;;;;;;5.76;88.86;98895.00;5111858;28;20039;-60
2021/09/21 01:32:19;;;;;;;2.28;1.92;;;;;;;5.80;87.22;98901.47;5111871;28;20067;-61
2021/09/21 01:34:46;;;;;;;4.13;2.25;;;;;;;5.81;87.63;98889.91;5113202;28;20035;-61
2021/09/21 01:37:13;;;;;;;2.95;2.15;;;;;;;5.81;88.02;98895.16;5112860;28;20047;-59
2021/09/21 01:39:40;;;;;;;3.45;2.40;;;;;;;5.81;88.55;98888.06;5113001;28;20039;-60
2021/09/21 01:42:06;;;;;;;4.13;2.33;;;;;;;5.86;87.59;98895.31;5113018;28;20050;-59
2021/09/21 01:44:32;;;;;;;5.10;2.95;;;;;;;5.87;87.57;98892.47;5112838;28;20039;-62
2021/09/21 01:47:02;;;;;;;3.30;2.45;;;;;;;5.94;88.29;98888.97;5112870;28;20079;-58
2021/09/21 01:49:33;;;;;;;;;;;;;;;5.94;87.64;98892.41;5113333;28;20519;-60
2021/09/21 02:00:13;;;;;;;3.83;2.58;;;;;;;5.95;87.30;98878.25;5112581;28;20047;-60
2021/09/21 02:02:39;;;;;;;4.70;2.60;;;;;;;5.98;86.73;98883.06;5112361;28;20054;-59
2021/09/21 02:05:05;;;;;;;2.80;2.15;;;;;;;5.98;86.88;98882.28;5112453;28;20043;-59
2021/09/21 02:07:30;;;;;;;5.10;3.22;;;;;;;5.96;86.45;98876.44;5112811;28;20040;-59
2021/09/21 02:09:56;;;;;;;3.03;2.42;;;;;;;5.97;86.81;98865.69;5112425;28;20062;-61
2021/09/21 02:12:22;;;;;;;2.03;1.83;;;;;;;5.98;86.67;98877.00;5112558;28;20044;-60
2021/09/21 02:14:48;;;;;;;3.28;2.08;;;;;;;5.94;86.39;98855.59;5112534;28;20412;-61
2021/09/21 02:17:14;;;;;;;3.25;2.50;;;;;;;5.91;86.82;98867.34;5112490;28;20035;-60
2021/09/21 02:19:40;;;;;;;3.55;2.47;;;;;;;5.96;86.80;98861.44;5112289;28;20122;-61
2021/09/21 02:22:07;;;;;;;2.42;2.13;;;;;;;5.95;86.92;98862.47;5112390;28;20040;-61
2021/09/21 02:24:33;;;;;;;2.97;2.00;;;;;;;5.92;86.62;98860.25;5112208;28;20039;-60
2021/09/21 02:26:58;;;;;;;2.95;2.42;;;;;;;5.94;86.88;98862.69;5112267;28;20071;-61
2021/09/21 02:29:26;;;;;;;2.97;2.05;;;;;;;5.92;86.46;98860.25;5110784;28;20098;-61
2021/09/21 02:31:52;;;;;;;3.58;1.90;;;;;;;5.92;86.79;98858.41;5111993;28;20058;-62
2021/09/21 02:34:18;;;;;;;2.65;1.90;;;;;;;5.88;86.60;98854.63;5112000;28;20043;-62
2021/09/21 02:36:45;;;;;;;3.15;2.50;;;;;;;5.89;86.25;98848.34;5111442;28;20041;-61
2021/09/21 02:39:11;;;;;;;4.07;2.40;;;;;;;5.97;87.46;98860.44;5112181;28;20032;-60
2021/09/21 02:41:37;;;;;;;3.53;2.33;;;;;;;6.01;86.56;98851.06;5112131;28;20043;-61
2021/09/21 02:44:03;;;;;;;2.30;2.00;;;;;;;5.99;86.21;98854.94;5112206;28;20063;-61
2021/09/21 02:46:29;;;;;;;3.30;1.90;;;;;;;5.97;86.02;98849.91;5111844;28;20070;-61
2021/09/21 02:48:55;;;;;;;2.85;2.10;;;;;;;6.00;86.25;98846.84;5110541;28;20051;-60
2021/09/21 02:51:21;;;;;;;4.38;2.47;;;;;;;6.07;86.46;98844.13;5111800;28;20040;-61
2021/09/21 02:53:47;;;;;;;2.92;2.17;;;;;;;6.07;86.36;98844.91;5111691;28;20081;-60
2021/09/21 02:56:14;;;;;;;2.35;2.08;;;;;;;6.08;85.74;98849.16;5111724;28;20032;-61
2021/09/21 02:58:41;;;;;;;2.28;1.80;;;;;;;6.06;86.50;98842.50;5110376;28;20075;-60
2021/09/21 03:01:07;;;;;;;2.38;2.00;;;;;;;6.06;85.90;98831.97;5111981;28;20048;-60
2021/09/21 03:03:41;;;;;;;2.38;1.75;;;;;;;6.06;85.48;98838.06;5111644;28;20096;-60
2021/09/21 03:06:10;;;;;;;2.20;1.80;;;;;;;6.09;85.96;98834.97;5111686;28;20612;-60
2021/09/21 03:08:37;;;;;;;2.53;1.80;;;;;;;6.06;86.27;98831.97;5111522;28;20138;-60
2021/09/21 03:18:49;;;;;;;2.25;1.75;;;;;;;6.05;85.71;98835.63;5111529;28;20044;-60
2021/09/21 03:21:15;;;;;;;2.63;1.80;;;;;;;6.03;85.80;98827.97;5110356;28;20077;-60
2021/09/21 03:23:41;;;;;;;2.42;1.65;;;;;;;6.09;86.24;98840.25;5111144;28;20385;-60
2021/09/21 03:26:06;;;;;;;1.90;1.70;;;;;;;6.11;85.83;98829.47;5111456;28;20081;-60
2021/09/21 03:28:32;;;;;;;2.80;2.10;;;;;;;6.12;85.90;98815.31;5111907;28;20055;-60
2021/09/21 03:30:58;;;;;;;2.28;1.88;;;;;;;6.14;86.14;98823.78;5110267;28;20451;-60
2021/09/21 03:33:23;;;;;;;2.80;1.92;;;;;;;6.13;86.49;98822.97;5111630;28;20544;-60
2021/09/21 03:35:49;;;;;;;2.00;1.77;;;;;;;6.14;85.58;98831.66;5111458;28;20173;-61
2021/09/21 03:38:15;;;;;;;2.63;1.80;;;;;;;6.15;85.58;98841.19;5111777;28;20092;-59
2021/09/21 03:40:41;;;;;;;2.60;1.85;;;;;;;6.18;86.41;98824.97;5111295;28;20397;-61
2021/09/21 03:43:07;;;;;;;2.47;1.63;;;;;;;6.16;85.64;98827.00;5110442;28;20185;-61
2021/09/21 03:45:33;;;;;;;3.05;1.88;;;;;;;6.18;86.37;98827.59;5110143;28;20062;-62
2021/09/21 03:47:59;;;;;;;3.42;2.28;;;;;;;6.19;86.03;98823.13;5112919;28;20127;-61
2021/09/21 03:50:25;;;;;;;3.58;2.10;;;;;;;6.21;85.92;98827.16;5115321;28;20168;-61
2021/09/21 03:52:51;;;;;;;2.50;2.10;;;;;;;6.19;85.84;98829.19;5115417;28;20044;-60
2021/09/21 03:55:18;;;;;;;3.15;2.10;;;;;;;6.23;86.00;98824.28;5114931;28;20516;-60
2021/09/21 03:57:44;;;;;;;2.72;1.98;;;;;;;6.23;86.32;98835.59;5114836;28;20508;-59
2021/09/21 04:00:11;;;;;;;2.25;1.85;;;;;;;6.24;85.69;98818.00;5115492;28;20046;-61
2021/09/21 04:02:38;;;;;;;1.80;1.70;;;;;;;6.26;86.21;98815.94;5113645;28;20062;-59
2021/09/21 04:05:05;;;;;;;2.03;1.77;;;;;;;6.22;86.39;98831.38;5096664;28;20039;-61
2021/09/21 04:07:30;;;;;;;2.28;1.85;;;;;;;6.13;86.50;98809.81;5115230;28;20048;-60
2021/09/21 04:09:56;;;;;;;4.10;2.30;;;;;;;6.21;86.21;98824.50;5114765;28;20135;-61
2021/09/21 04:12:22;;;;;;;2.00;1.80;;;;;;;6.23;86.11;98814.53;5114761;28;20044;-61
2021/09/21 04:14:48;;;;;;;1.50;1.40;;;;;;;6.20;86.51;98815.00;5114572;28;20053;-61
2021/09/21 04:17:14;;;;;;;2.35;1.95;;;;;;;6.22;87.10;98807.69;5114637;28;20039;-60
2021/09/21 04:19:39;;;;;;;2.83;2.25;;;;;;;6.25;86.67;98812.50;5114330;28;20158;-60
2021/09/21 04:22:06;;;;;;;3.97;2.10;;;;;;;6.28;86.82;98814.69;5114711;28;20074;-60
2021/09/21 04:24:37;;;;;;;2.45;1.83;;;;;;;6.26;86.21;98806.19;5114533;28;20046;-60
2021/09/21 04:27:03;;;;;;;4.55;2.38;;;;;;;6.26;86.83;98802.78;5114463;28;20050;-60
2021/09/21 04:29:29;;;;;;;3.28;2.35;;;;;;;6.21;87.09;98813.97;5114227;28;20052;-61
2021/09/21 04:32:02;;;;;;;2.83;2.05;;;;;;;6.28;86.62;98809.41;5114010;27;20092;-61
2021/09/21 04:34:30;;;;;;;2.13;1.83;;;;;;;6.29;86.85;98804.97;5097353;28;20131;-61
2021/09/21 04:37:00;;;;;;;2.78;2.03;;;;;;;6.25;87.08;98809.06;5113131;28;20044;-60
2021/09/21 04:39:26;;;;;;;2.33;2.03;;;;;;;6.27;87.31;98810.47;5096233;28;20035;-61
2021/09/21 04:41:52;;;;;;;2.75;2.13;;;;;;;6.30;87.48;98806.59;5114122;28;20078;-60
2021/09/21 04:44:18;;;;;;;2.05;1.85;;;;;;;6.31;87.19;98802.91;5113950;28;20038;-61
2021/09/21 04:46:44;;;;;;;1.88;1.65;;;;;;;6.31;87.06;98810.81;5112570;28;20043;-58
2021/09/21 04:49:13;;;;;;;2.65;1.77;;;;;;;6.30;87.06;98809.22;5113762;28;20044;-59
2021/09/21 04:51:39;;;;;;;2.78;2.05;;;;;;;6.34;87.87;98799.84;5112535;28;20067;-62
2021/09/21 04:54:05;;;;;;;3.22;1.80;;;;;;;6.34;87.20;98811.16;5113805;28;20051;-61
2021/09/21 04:56:32;;;;;;;2.33;1.75;;;;;;;6.31;86.98;98808.97;5113474;28;20056;-61
2021/09/21 04:58:58;;;;;;;2.83;1.80;;;;;;;6.31;86.92;98803.72;5095436;28;20055;-60
2021/09/21 05:01:24;;;;;;;3.10;2.10;;;;;;;6.34;86.89;98813.00;5113503;28;20040;-60
2021/09/21 05:03:49;;;;;;;2.78;2.08;;;;;;;6.32;86.96;98820.31;5112174;28;20039;-61
2021/09/21 05:06:15;;;;;;;2.50;2.30;;;;;;;6.34;87.45;98815.63;5112115;28;20055;-64
2021/09/21 05:08:43;;;;;;;3.10;2.10;;;;;;;6.40;88.33;98813.94;5112583;28;20439;-58
2021/09/21 05:11:10;;;;;;;4.22;2.42;;;;;;;6.41;87.39;98811.06;5095625;28;20040;-57
2021/09/21 05:13:35;;;;;;;2.75;2.00;;;;;;;6.35;87.82;98810.16;5111687;28;20473;-59
2021/09/21 05:16:01;;;;;;;3.17;2.00;;;;;;;6.39;87.64;98807.88;5113201;28;20126;-60
2021/09/21 05:18:27;;;;;;;2.88;1.95;;;;;;;6.37;87.52;98820.44;5113100;28;20044;-58
2021/09/21 05:20:53;;;;;;;3.45;2.10;;;;;;;6.36;87.40;98810.94;5113016;28;20496;-62
2021/09/21 05:23:19;;;;;;;3.72;2.47;;;;;;;6.36;87.87;98801.22;5113406;28;20048;-61
2021/09/21 05:25:45;;;;;;;4.07;2.33;;;;;;;6.40;88.21;98806.84;5113624;28;20039;-60
2021/09/21 05:28:10;;;;;;;2.78;2.38;;;;;;;6.41;88.46;98803.16;5113749;28;20043;-62
2021/09/21 05:30:36;;;;;;;2.72;2.10;;;;;;;6.40;87.81;98812.09;5111769;28;20036;-59
2021/09/21 05:33:02;;;;;;;3.65;2.38;;;;;;;6.40;88.09;98806.03;5112901;28;20138;-59
2021/09/21 05:35:28;;;;;;;3.38;2.00;;;;;;;6.41;87.84;98810.25;5112013;28;20073;-59
2021/09/21 05:37:53;;;;;;;3.85;2.35;;;;;;;6.40;88.01;98806.84;5113162;28;20035;-58
2021/09/21 05:40:19;;;;;;;3.10;2.33;;;;;;;6.45;88.19;98806.97;5106335;28;20036;-59
2021/09/21 05:42:45;;;;;;;2.97;2.20;;;;;;;6.42;87.55;98804.00;5111825;28;20090;-59
2021/09/21 05:45:12;;;;;;;5.22;2.30;;;;;;;6.41;88.19;98802.38;5107606;28;20027;-59
2021/09/21 05:47:43;;;;;;;2.72;2.10;;;;;;;6.48;87.86;98798.63;5111737;28;20120;-57
2021/09/21 05:50:10;;;;;;;4.43;2.25;;;;;;;6.51;88.05;98800.81;5110273;28;20501;-58
2021/09/21 05:52:36;;;;;;;3.40;2.15;;;;;;;6.56;87.62;98805.41;5108010;28;20047;-58
2021/09/21 05:55:04;;;;;;;3.70;2.47;;;;;;;6.55;87.62;98796.69;5092314;28;20043;-60
2021/09/21 05:57:30;;;;;;;2.58;2.28;;;;;;;6.59;87.68;98797.84;5110456;28;20047;-60
2021/09/21 05:59:56;;;;;;;3.13;2.35;;;;;;;6.60;87.69;98799.44;5110684;28;20040;-62
2021/09/21 06:02:23;;;;;;;2.80;2.20;;;;;;;6.57;87.54;98802.53;5110228;28;20412;-60
2021/09/21 06:04:50;;;;;;;2.88;2.28;;;;;;;6.51;87.84;98800.00;5125322;27;20040;-61
2021/09/21 06:07:16;;;;;;;3.92;2.72;;;;;;;6.55;88.52;98799.31;5109187;28;20100;-58
2021/09/21 06:09:41;;;;;;;4.60;2.47;;;;;;;6.60;88.03;98807.34;5109391;28;20040;-60
2021/09/21 06:12:07;;;;;;;3.10;2.30;;;;;;;6.58;87.88;98803.31;5108106;28;20055;-59
2021/09/21 06:14:33;;;;;;;2.75;2.15;;;;;;;6.59;87.77;98804.97;5108294;28;20070;-60
2021/09/21 06:16:59;;;;;;;3.08;2.25;;;;;;;6.63;88.21;98802.66;5109283;28;20059;-58
2021/09/21 06:19:24;;;;;;;4.10;2.60;;;;;;;6.62;88.64;98803.69;5107426;28;20068;-59
2021/09/21 06:21:51;;;;;;;2.17;1.95;;;;;;;6.65;88.23;98790.06;5108296;28;20060;-59
2021/09/21 06:24:17;;;;;;;5.28;2.65;;;;;;;6.68;88.92;98800.97;5110131;28;20127;-61
2021/09/21 06:26:43;;;;;;;3.08;2.10;;;;;;;6.69;88.87;98801.75;5110009;28;20383;-62
2021/09/21 06:29:09;;;;;;;3.50;2.35;;;;;;;6.66;88.38;98797.75;5108979;28;20039;-60
2021/09/21 06:31:35;;;;;;;3.40;2.40;;;;;;;6.68;88.25;98797.53;5109080;28;20040;-58
2021/09/21 06:34:01;;;;;;;3.75;2.40;;;;;;;6.63;88.14;98800.81;5108912;28;20055;-59
2021/09/21 06:36:27;;;;;;;3.47;2.47;;;;;;;6.59;88.13;98811.03;5107908;28;20108;-58
2021/09/21 06:38:53;;;;;;;3.33;2.42;;;;;;;6.58;88.93;98795.44;5108570;28;20047;-58
2021/09/21 06:41:19;;;;;;;2.53;2.03;;;;;;;6.61;88.53;98808.16;5108350;28;20043;-58
2021/09/21 06:43:44;;;;;;;4.38;2.78;;;;;;;6.60;89.13;98802.06;5108339;28;20040;-59
2021/09/21 06:46:10;;;;;;;3.97;3.00;;;;;;;6.64;89.06;98801.63;5107016;28;20039;-59
2021/09/21 06:48:39;;;;;;;2.58;2.38;;;;;;;6.66;88.29;98800.38;5107983;28;20097;-58
2021/09/21 06:51:06;;;;;;;2.58;2.30;;;;;;;6.74;88.17;98797.41;5107861;28;20042;-59
2021/09/21 06:53:32;;;;;;;3.13;2.45;;;;;;;6.78;87.88;98803.03;5107824;28;20047;-59
2021/09/21 06:55:58;;;;;;;2.45;2.10;;;;;;;6.75;87.44;98811.38;5107704;28;20112;-62
2021/09/21 06:58:23;;;;;;;4.40;2.60;;;;;;;6.78;88.71;98801.19;5123642;28;20134;-59
2021/09/21 07:00:50;;;;;;;3.30;2.50;;;;;;;6.76;87.81;98799.81;5106860;28;20222;-60
2021/09/21 07:03:15;;;;;;;3.75;2.90;;;;;;;6.83;87.70;98803.16;5109458;28;20127;-59
2021/09/21 07:05:41;;;;;;;4.80;3.13;;;;;;;6.79;87.88;98807.25;5106068;28;20035;-60
2021/09/21 07:08:07;;;;;;;3.53;2.40;;;;;;;6.79;87.78;98796.72;5109911;28;20051;-58
2021/09/21 07:10:33;;;;;;;2.92;2.60;;;;;;;6.80;87.50;98804.41;5108089;28;20122;-60
2021/09/21 07:12:59;;;;;;;3.13;2.30;;;;;;;6.77;87.46;98796.16;5106905;28;20374;-57
2021/09/21 07:15:25;;;;;;;3.67;2.20;;;;;;;6.84;87.96;98804.75;5107333;28;20035;-59
2021/09/21 07:17:52;;;;;;;3.50;2.08;;;;;;;6.82;87.63;98798.91;5107520;28;20449;-58
2021/09/21 07:20:18;;;;;;;3.00;2.10;;;;;;;6.80;87.71;98796.50;5105585;28;20044;-60
2021/09/21 07:22:44;;;;;;;3.22;2.15;;;;;;;6.81;87.57;98800.75;5109553;28;20054;-58
2021/09/21 07:25:10;;;;;;;4.20;2.00;;;;;;;6.82;87.94;98805.00;5114022;28;20035;-58
2021/09/21 07:27:36;;;;;;;2.47;2.28;;;;;;;6.83;87.65;98803.97;5111829;28;20587;-57
2021/09/21 07:30:03;;;;;;;3.25;2.45;;;;;;;6.81;87.81;98806.00;5110589;28;20051;-60
2021/09/21 07:32:29;;;;;;;3.92;2.63;;;;;;;6.82;87.81;98805.00;5107608;28;20146;-60
2021/09/21 07:34:54;;;;;;;6.18;2.47;;;;;;;6.83;87.42;98805.81;5110253;28;20616;-59
2021/09/21 07:37:20;;;;;;;3.30;2.80;;;;;;;6.85;88.23;98805.56;5110500;28;20139;-56
2021/09/21 07:39:46;;;;;;;4.75;2.63;;;;;;;6.88;87.72;98803.25;5112283;28;20044;-56
2021/09/21 07:42:12;;;;;;;3.22;2.50;;;;;;;6.85;87.80;98811.63;5113298;28;20036;-57
2021/09/21 07:44:38;;;;;;;2.90;2.38;;;;;;;6.83;87.88;98803.97;5110977;28;20512;-58
2021/09/21 07:47:04;;;;;;;3.63;2.53;;;;;;;6.81;88.08;98806.00;5110090;28;20532;-59
2021/09/21 07:49:29;;;;;;;4.38;3.00;;;;;;;6.79;88.46;98800.19;5110452;28;20036;-59
2021/09/21 07:51:55;;;;;;;5.07;3.22;;;;;;;6.75;88.60;98809.56;5110827;28;20134;-58
2021/09/21 07:54:21;;;;;;;4.07;2.97;;;;;;;6.70;88.43;98800.72;5109784;28;20424;-59
2021/09/21 07:56:47;;;;;;;4.05;3.03;;;;;;;6.72;88.42;98803.94;5111759;28;20377;-57
2021/09/21 07:59:13;;;;;;;3.65;3.28;;;;;;;6.80;89.24;98807.06;5110456;28;20043;-59
2021/09/21 08:01:41;;;;;;;6.32;3.53;;;;;;;6.77;88.66;98796.97;5111055;28;20043;-60
2021/09/21 08:04:06;;;;;;;6.13;3.65;;;;;;;6.88;88.69;98805.09;5110751;28;20054;-57
2021/09/21 08:06:32;;;;;;;6.03;4.10;;;;;;;6.85;88.10;98805.56;5111288;28;20039;-60
2021/09/21 08:08:58;;;;;;;5.32;3.70;;;;;;;6.89;88.21;98806.72;5111856;28;20120;-59
2021/09/21 08:11:24;;;;;;;5.88;3.90;;;;;;;6.90;88.39;98811.75;5109754;28;20047;-58
2021/09/21 08:13:50;;;;;;;5.13;3.15;;;;;;;6.82;87.70;98804.19;5109790;28;20492;-58
2021/09/21 08:16:15;;;;;;;5.47;3.15;;;;;;;6.80;87.98;98804.41;5110504;28;20066;-59
2021/09/21 08:18:43;;;;;;;3.72;3.05;;;;;;;6.75;87.60;98806.91;5111358;28;20067;-58
2021/09/21 08:21:09;;;;;;;4.72;3.78;;;;;;;6.73;88.21;98785.25;5110930;28;20497;-58
2021/09/21 08:23:35;;;;;;;5.10;3.67;;;;;;;6.77;88.28;98793.53;5104360;28;20076;-58
2021/09/21 08:26:01;;;;;;;6.55;3.75;;;;;;;6.72;88.26;98802.09;5091906;28;20047;-60
2021/09/21 08:28:27;;;;;;;4.13;3.28;;;;;;;6.73;88.05;98800.28;5091130;28;20492;-61
2021/09/21 08:30:53;;;;;;;4.70;3.72;;;;;;;6.70;88.52;98806.78;5090504;28;20081;-61
2021/09/21 08:33:18;;;;;;;7.97;3.85;;;;;;;6.74;89.14;98791.34;5099503;28;20055;-61
2021/09/21 08:35:44;;;;;;;5.78;3.40;;;;;;;6.75;87.90;98806.91;5098291;28;20084;-60
2021/09/21 08:38:11;;;;;;;4.88;4.38;;;;;;;6.78;88.50;98809.09;5099687;28;20542;-58
2021/09/21 08:40:37;;;;;;;6.95;4.28;;;;;;;6.75;88.23;98800.84;5098115;28;20036;-58
2021/09/21 08:43:04;;;;;;;4.95;3.47;;;;;;;6.74;87.57;98800.06;5098802;28;20072;-59
2021/09/21 08:45:30;;;;;;;4.80;3.22;;;;;;;6.67;87.51;98803.81;5098593;28;20130;-58
2021/09/21 08:47:56;;;;;;;4.78;3.30;;;;;;;6.67;87.83;98801.97;5092709;28;20040;-64
2021/09/21 08:50:24;;;;;;;5.30;4.00;;;;;;;6.71;88.63;98807.63;5084112;28;20550;-60
2021/09/21 08:52:50;;;;;;;5.95;3.47;;;;;;;6.67;88.40;98807.25;5088729;28;20052;-60
2021/09/21 08:55:16;;;;;;;5.05;3.80;;;;;;;6.71;87.80;98812.88;5089239;28;20061;-60
2021/09/21 08:57:44;;;;;;;4.68;3.42;;;;;;;6.75;87.96;98808.75;5090382;28;20043;-59
2021/09/21 09:00:21;;;;;;;5.70;4.00;;;;;;;6.79;87.87;98804.63;5054272;28;20158;-59
2021/09/21 09:02:47;;;;;;;6.93;3.80;;;;;;;6.77;87.69;98819.88;5088929;28;20046;-59
2021/09/21 09:05:13;;;;;;;6.22;4.18;;;;;;;6.78;88.11;98809.09;5085263;28;20048;-60
2021/09/21 09:07:53;;;;;;;4.82;3.70;;;;;;;6.83;87.25;98811.06;5089820;28;20051;-59
2021/09/21 09:10:21;;;;;;;5.47;3.78;;;;;;;6.77;87.31;98804.88;5090995;28;20162;-58
2021/09/21 09:12:48;;;;;;;4.78;3.65;;;;;;;6.71;87.08;98808.41;5088437;28;20451;-59
2021/09/21 09:15:17;;;;;;;5.97;4.45;;;;;;;6.77;87.56;98810.13;5081622;28;20137;-60
2021/09/21 09:17:53;;;;;;;5.20;4.18;;;;;;;6.82;87.23;98806.81;5088638;28;20067;-60
2021/09/21 09:20:36;;;;;;;5.22;4.30;;;;;;;6.82;87.05;98812.06;5086408;28;20046;-61
2021/09/21 09:23:06;;;;;;;5.20;3.85;;;;;;;6.77;86.82;98809.34;5088351;28;20090;-60
2021/09/21 09:25:32;;;;;;;8.38;4.45;;;;;;;6.73;87.72;98805.53;5089717;28;20047;-60
2021/09/21 09:27:58;;;;;;;5.78;3.75;;;;;;;6.72;86.98;98810.00;5088775;28;20043;-60
2021/09/21 09:30:25;;;;;;;7.65;3.83;;;;;;;6.70;87.36;98813.88;5087963;28;20389;-61
2021/09/21 09:32:54;;;;;;;8.95;4.47;;;;;;;6.71;87.56;98813.69;5089895;28;20090;-60
2021/09/21 09:35:41;;;;;;;6.00;4.50;;;;;;;6.75;87.06;98811.38;5096451;28;20394;-60
2021/09/21 09:38:09;;;;;;;6.97;4.38;;;;;;;6.75;87.04;98808.75;5109901;28;20071;-59
2021/09/21 09:40:52;;;;;;;4.63;3.50;;;;;;;6.79;86.87;98810.72;5109322;28;20108;-60
2021/09/21 09:43:20;;;;;;;6.18;4.53;;;;;;;6.86;87.32;98826.41;5108988;28;20535;-61
2021/09/21 09:45:50;;;;;;;4.32;3.13;;;;;;;6.80;86.29;98825.50;5109846;28;20118;-59
2021/09/21 09:48:18;;;;;;;5.18;4.43;;;;;;;6.96;87.20;98821.38;5100119;28;20040;-59
2021/09/21 09:50:46;;;;;;;7.07;4.13;;;;;;;6.95;86.65;98809.25;5108591;28;20154;-59
2021/09/21 09:53:12;;;;;;;6.65;3.95;;;;;;;6.89;86.54;98828.59;5124031;27;20047;-60
2021/09/21 09:55:39;;;;;;;5.80;3.72;;;;;;;6.92;86.54;98824.72;5107405;28;20060;-61
2021/09/21 09:58:06;;;;;;;5.70;4.13;;;;;;;6.92;86.96;98825.50;5107853;28;20035;-59
2021/09/21 10:00:33;;;;;;;5.85;4.15;;;;;;;6.90;86.67;98819.66;5105803;28;20032;-60
2021/09/21 10:03:00;;;;;;;5.20;4.35;;;;;;;6.88;86.98;98826.97;5106645;28;20040;-60
2021/09/21 10:05:29;;;;;;;6.47;4.75;;;;;;;6.94;87.29;98820.00;5107031;28;20317;-62
2021/09/21 10:07:56;;;;;;;4.57;3.60;;;;;;;6.95;86.28;98825.06;5105369;28;20604;-61
2021/09/21 10:10:22;;;;;;;4.30;3.90;;;;;;;6.98;86.35;98837.78;5108190;28;20043;-60
2021/09/21 10:12:48;;;;;;;5.95;4.47;;;;;;;7.01;86.51;98847.84;5106998;28;20050;-62
2021/09/21 10:15:15;;;;;;;5.20;3.67;;;;;;;6.94;86.01;98843.72;5108376;28;20540;-60
2021/09/21 10:17:55;;;;;;;6.75;3.70;;;;;;;6.98;86.22;98835.13;5106704;28;20048;-61
2021/09/21 10:20:22;;;;;;;5.88;4.47;;;;;;;6.90;85.75;98842.56;5107800;28;20464;-60
2021/09/21 10:22:53;;;;;;;5.75;4.20;;;;;;;6.92;86.34;98841.31;5106309;28;20052;-61
2021/09/21 10:25:31;;;;;;;4.70;3.72;;;;;;;6.90;86.41;98838.09;5097737;28;20047;-59
2021/09/21 10:27:57;;;;;;;5.95;4.35;;;;;;;6.94;86.60;98836.63;5087370;28;20044;-62
2021/09/21 10:30:26;;;;;;;5.57;4.28;;;;;;;6.93;86.10;98839.47;5086587;28;20393;-63
2021/09/21 10:32:52;;;;;;;8.00;4.82;;;;;;;7.01;86.28;98836.53;5084351;28;20549;-62
2021/09/21 10:35:20;;;;;;;7.82;4.88;;;;;;;7.03;85.98;98834.47;5087146;28;20048;-62
2021/09/21 10:38:17;;;;;;;6.13;4.15;;;;;;;7.00;85.95;98837.53;5086002;28;20420;-60
2021/09/21 10:40:52;;;;;;;6.95;4.80;;;;;;;7.00;86.28;98829.63;5086300;28;20047;-61
2021/09/21 10:43:29;;;;;;;5.97;4.53;;;;;;;6.95;86.08;98840.88;5086530;28;20051;-61
2021/09/21 10:46:25;;;;;;;5.85;4.55;;;;;;;6.98;85.93;98834.34;5086797;28;20036;-62
2021/09/21 10:48:51;;;;;;;7.90;5.82;;;;;;;6.94;86.11;98846.34;5085768;28;20043;-60
2021/09/21 10:51:22;;;;;;;9.68;4.72;;;;;;;6.91;86.13;98837.09;5087406;28;20139;-60
2021/09/21 10:53:58;;;;;;;5.72;4.53;;;;;;;7.03;86.23;98837.91;5086996;28;20044;-61
2021/09/21 10:56:24;;;;;;;6.78;4.45;;;;;;;7.00;85.38;98855.97;5086805;28;20131;-61
2021/09/21 10:58:52;;;;;;;5.75;4.20;;;;;;;6.91;85.72;98844.16;5087365;28;20123;-60
2021/09/21 11:01:18;;;;;;;7.35;4.57;;;;;;;6.94;86.17;98836.63;5070030;28;20458;-61
2021/09/21 11:03:44;;;;;;;6.15;4.55;;;;;;;6.94;85.65;98844.53;5084995;28;20496;-62
2021/09/21 11:06:12;;;;;;;5.82;4.47;;;;;;;6.86;85.69;98852.75;5087355;28;20058;-62
2021/09/21 11:08:38;;;;;;;5.80;4.70;;;;;;;6.86;85.99;98850.13;5086902;28;20052;-61
2021/09/21 11:11:05;;;;;;;7.22;4.60;;;;;;;6.80;85.91;98854.47;5086895;28;20040;-62
2021/09/21 11:13:36;;;;;;;8.73;4.60;;;;;;;6.81;85.92;98850.78;5088491;28;20051;-60
2021/09/21 11:16:04;;;;;;;7.10;4.45;;;;;;;6.83;86.08;98866.38;5086425;28;20424;-60
2021/09/21 11:18:31;;;;;;;6.75;5.07;;;;;;;6.82;86.83;98843.69;5086890;28;20044;-60
2021/09/21 11:20:58;;;;;;;7.80;5.18;;;;;;;6.90;86.28;98858.38;5086921;28;20544;-61
2021/09/21 11:23:30;;;;;;;7.03;4.75;;;;;;;6.85;86.17;98853.78;5088166;28;20051;-60
2021/09/21 11:25:59;;;;;;;8.63;5.20;;;;;;;6.83;86.36;98854.00;5085858;28;20081;-61
2021/09/21 11:28:26;;;;;;;6.78;5.00;;;;;;;6.85;86.27;98848.50;5086709;28;20055;-61
2021/09/21 11:30:55;;;;;;;6.25;4.20;;;;;;;6.83;85.77;98853.22;5085852;28;20486;-60
2021/09/21 11:33:23;;;;;;;7.93;4.85;;;;;;;6.81;86.06;98850.78;5086457;28;20523;-59
2021/09/21 11:35:51;;;;;;;9.18;5.10;;;;;;;6.82;86.40;98852.41;5087597;28;20052;-60
2021/09/21 11:38:18;;;;;;;6.22;5.45;;;;;;;6.86;86.38;98857.22;5087393;28;20194;-60
2021/09/21 11:40:44;;;;;;;7.60;5.63;;;;;;;6.90;86.53;98850.47;5087537;28;20535;-61
2021/09/21 11:43:13;;;;;;;5.05;4.43;;;;;;;6.81;85.98;98856.06;5085746;28;20051;-60
2021/09/21 11:45:41;;;;;;;7.95;5.10;;;;;;;6.84;86.18;98857.44;5088050;28;20156;-60
2021/09/21 11:48:09;;;;;;;6.63;4.88;;;;;;;6.86;86.71;98849.34;5088461;28;20151;-60
2021/09/21 11:50:36;;;;;;;6.35;4.72;;;;;;;6.82;86.20;98848.97;5088639;28;20040;-60
2021/09/21 11:53:09;;;;;;;5.10;4.00;;;;;;;6.78;86.18;98855.72;5087128;28;20040;-59
2021/09/21 11:55:38;;;;;;;9.02;4.82;;;;;;;6.78;86.62;98858.34;5085547;28;20055;-59
2021/09/21 11:58:05;;;;;;;4.75;3.90;;;;;;;6.69;85.70;98849.16;5086965;28;20044;-60